createdAt,value
2019-02-22T00:01:44.057Z,44
2019-02-22T00:02:00.107Z,45
2019-02-22T00:02:08.890Z,44
2019-02-22T00:02:11.371Z,45
2019-02-22T00:02:15.780Z,46
2019-02-22T00:02:21.263Z,45
2019-02-22T00:02:28.867Z,46
2019-02-22T00:02:32.217Z,45
2019-02-22T00:02:33.366Z,44
2019-02-22T00:02:48.812Z,43
2019-02-22T00:02:51.805Z,44
2019-02-22T00:02:56.240Z,43
2019-02-22T00:03:01.035Z,44
2019-02-22T00:03:04.322Z,45
2019-02-22T00:03:16.467Z,44
2019-02-22T00:03:18.750Z,45
2019-02-22T00:03:25.370Z,46
2019-02-22T00:03:27.684Z,45
2019-02-22T00:03:29.945Z,46
2019-02-22T00:03:36.668Z,47
2019-02-22T00:03:43.234Z,46
2019-02-22T00:04:06.315Z,44
2019-02-22T00:04:11.838Z,45
2019-02-22T00:04:14.070Z,44
2019-02-22T00:04:17.409Z,45
2019-02-22T00:04:19.700Z,44
2019-02-22T00:04:23.043Z,43
2019-02-22T00:04:25.247Z,42
2019-02-22T00:04:29.678Z,41
2019-02-22T00:04:31.900Z,42
2019-02-22T00:04:37.451Z,43
2019-02-22T00:04:40.765Z,44
2019-02-22T00:04:42.980Z,43
2019-02-22T00:04:49.509Z,41
2019-02-22T00:04:53.965Z,42
2019-02-22T00:04:57.295Z,43
2019-02-22T00:04:59.740Z,44
2019-02-22T00:05:04.136Z,45
2019-02-22T00:05:07.473Z,44
2019-02-22T00:05:19.560Z,43
2019-02-22T00:05:24.737Z,44
2019-02-22T00:05:33.496Z,45
2019-02-22T00:05:40.095Z,44
2019-02-22T00:05:43.473Z,43
2019-02-22T00:05:45.680Z,44
2019-02-22T00:05:53.804Z,45
2019-02-22T00:05:57.503Z,44
2019-02-22T00:06:00.026Z,45
2019-02-22T00:06:06.994Z,44
2019-02-22T00:06:10.359Z,45
2019-02-22T00:06:11.554Z,44
2019-02-22T00:06:14.900Z,43
2019-02-22T00:06:17.182Z,44
2019-02-22T00:06:19.409Z,45
2019-02-22T00:06:22.740Z,46
2019-02-22T00:06:27.073Z,45
2019-02-22T00:06:30.430Z,44
2019-02-22T00:06:32.672Z,45
2019-02-22T00:06:37.109Z,44
2019-02-22T00:06:39.422Z,45
2019-02-22T00:06:44.944Z,46
2019-02-22T00:06:47.219Z,45
2019-02-22T00:06:48.380Z,46
2019-02-22T00:06:50.535Z,45
2019-02-22T00:06:55.006Z,44
2019-02-22T00:06:57.272Z,45
2019-02-22T00:06:59.587Z,44
2019-02-22T00:07:04.002Z,45
2019-02-22T00:07:07.378Z,44
2019-02-22T00:07:23.810Z,45
2019-02-22T00:07:29.300Z,44
2019-02-22T00:07:30.464Z,46
2019-02-22T00:07:32.737Z,45
2019-02-22T00:07:33.798Z,46
2019-02-22T00:07:38.450Z,45
2019-02-22T00:07:41.774Z,46
2019-02-22T00:07:44.017Z,45
2019-02-22T00:07:46.323Z,46
2019-02-22T00:07:50.789Z,45
2019-02-22T00:07:53.034Z,46
2019-02-22T00:07:55.228Z,45
2019-02-22T00:07:57.477Z,46
2019-02-22T00:07:58.677Z,45
2019-02-22T00:08:00.902Z,44
2019-02-22T00:08:03.202Z,45
2019-02-22T00:08:11.000Z,44
2019-02-22T00:08:21.995Z,43
2019-02-22T00:08:25.369Z,42
2019-02-22T00:08:30.851Z,43
2019-02-22T00:08:32.002Z,44
2019-02-22T00:08:34.276Z,45
2019-02-22T00:08:39.790Z,46
2019-02-22T00:08:49.675Z,47
2019-02-22T00:08:53.004Z,46
2019-02-22T00:08:58.393Z,45
2019-02-22T00:09:00.575Z,44
2019-02-22T00:09:04.082Z,45
2019-02-22T00:09:06.404Z,44
2019-02-22T00:09:11.916Z,45
2019-02-22T00:09:14.091Z,44
2019-02-22T00:09:16.360Z,45
2019-02-22T00:09:22.882Z,44
2019-02-22T00:09:24.070Z,45
2019-02-22T00:09:26.317Z,44
2019-02-22T00:09:30.723Z,45
2019-02-22T00:09:31.945Z,44
2019-02-22T00:09:37.484Z,45
2019-02-22T00:09:53.546Z,44
2019-02-22T00:09:59.127Z,45
2019-02-22T00:10:01.553Z,46
2019-02-22T00:10:08.087Z,45
2019-02-22T00:10:13.652Z,46
2019-02-22T00:10:15.961Z,45
2019-02-22T00:10:18.199Z,44
2019-02-22T00:10:23.692Z,43
2019-02-22T00:10:28.172Z,44
2019-02-22T00:10:31.572Z,43
2019-02-22T00:10:41.090Z,44
2019-02-22T00:10:47.769Z,45
2019-02-22T00:10:58.773Z,46
2019-02-22T00:11:04.341Z,45
2019-02-22T00:11:06.600Z,46
2019-02-22T00:11:08.847Z,45
2019-02-22T00:11:09.959Z,46
2019-02-22T00:11:12.186Z,45
2019-02-22T00:11:13.244Z,46
2019-02-22T00:11:17.608Z,45
2019-02-22T00:11:21.992Z,44
2019-02-22T00:11:24.474Z,45
2019-02-22T00:11:27.816Z,44
2019-02-22T00:11:32.363Z,45
2019-02-22T00:11:36.756Z,44
2019-02-22T00:11:40.141Z,43
2019-02-22T00:11:43.556Z,44
2019-02-22T00:11:46.845Z,43
2019-02-22T00:11:50.242Z,44
2019-02-22T00:12:06.779Z,43
2019-02-22T00:12:12.388Z,42
2019-02-22T00:12:15.855Z,43
2019-02-22T00:12:17.030Z,44
2019-02-22T00:12:22.508Z,45
2019-02-22T00:12:24.838Z,46
2019-02-22T00:12:29.321Z,45
2019-02-22T00:12:38.180Z,46
2019-02-22T00:12:41.629Z,45
2019-02-22T00:12:43.854Z,44
2019-02-22T00:12:49.433Z,45
2019-02-22T00:12:51.631Z,43
2019-02-22T00:12:54.931Z,44
2019-02-22T00:12:57.208Z,43
2019-02-22T00:13:00.530Z,44
2019-02-22T00:13:04.969Z,43
2019-02-22T00:13:08.333Z,44
2019-02-22T00:13:13.768Z,43
2019-02-22T00:13:15.999Z,45
2019-02-22T00:13:24.974Z,44
2019-02-22T00:13:30.336Z,43
2019-02-22T00:13:39.093Z,44
2019-02-22T00:13:40.505Z,43
2019-02-22T00:13:49.427Z,44
2019-02-22T00:13:54.550Z,45
2019-02-22T00:13:57.194Z,44
2019-02-22T00:14:00.445Z,45
2019-02-22T00:14:06.940Z,44
2019-02-22T00:14:09.172Z,45
2019-02-22T00:14:13.617Z,44
2019-02-22T00:14:16.976Z,43
2019-02-22T00:14:18.110Z,44
2019-02-22T00:14:19.176Z,45
2019-02-22T00:14:21.396Z,44
2019-02-22T00:14:24.737Z,45
2019-02-22T00:14:29.197Z,46
2019-02-22T00:14:34.645Z,45
2019-02-22T00:14:38.026Z,44
2019-02-22T00:14:41.382Z,45
2019-02-22T00:14:44.631Z,44
2019-02-22T00:14:47.990Z,45
2019-02-22T00:14:51.362Z,46
2019-02-22T00:14:54.749Z,47
2019-02-22T00:14:55.897Z,46
2019-02-22T00:15:02.587Z,45
2019-02-22T00:15:04.872Z,44
2019-02-22T00:15:08.176Z,43
2019-02-22T00:15:14.913Z,44
2019-02-22T00:15:23.736Z,45
2019-02-22T00:15:27.048Z,44
2019-02-22T00:15:29.309Z,45
2019-02-22T00:15:31.543Z,46
2019-02-22T00:15:37.419Z,45
2019-02-22T00:15:39.691Z,46
2019-02-22T00:15:46.440Z,45
2019-02-22T00:15:47.628Z,46
2019-02-22T00:15:54.315Z,47
2019-02-22T00:15:57.614Z,48
2019-02-22T00:15:59.940Z,45
2019-02-22T00:16:06.631Z,46
2019-02-22T00:16:11.084Z,45
2019-02-22T00:16:15.528Z,44
2019-02-22T00:16:18.801Z,45
2019-02-22T00:16:21.047Z,44
2019-02-22T00:16:24.386Z,43
2019-02-22T00:16:32.350Z,44
2019-02-22T00:16:35.807Z,46
2019-02-22T00:16:40.148Z,47
2019-02-22T00:16:42.415Z,46
2019-02-22T00:16:43.516Z,47
2019-02-22T00:16:49.257Z,46
2019-02-22T00:16:53.747Z,45
2019-02-22T00:16:57.087Z,47
2019-02-22T00:16:59.328Z,46
2019-02-22T00:17:01.610Z,45
2019-02-22T00:17:04.982Z,46
2019-02-22T00:17:09.515Z,45
2019-02-22T00:17:32.165Z,46
2019-02-22T00:17:34.358Z,45
2019-02-22T00:17:35.522Z,46
2019-02-22T00:17:37.832Z,48
2019-02-22T00:17:41.245Z,47
2019-02-22T00:17:43.514Z,46
2019-02-22T00:17:46.871Z,47
2019-02-22T00:17:54.572Z,46
2019-02-22T00:18:00.054Z,47
2019-02-22T00:18:02.361Z,48
2019-02-22T00:18:04.624Z,46
2019-02-22T00:18:09.053Z,47
2019-02-22T00:18:15.624Z,46
2019-02-22T00:18:19.993Z,47
2019-02-22T00:18:24.456Z,46
2019-02-22T00:18:27.780Z,47
2019-02-22T00:18:32.344Z,46
2019-02-22T00:18:34.580Z,47
2019-02-22T00:18:37.840Z,48
2019-02-22T00:18:40.129Z,47
2019-02-22T00:18:47.842Z,48
2019-02-22T00:18:54.445Z,47
2019-02-22T00:18:58.968Z,49
2019-02-22T00:19:02.324Z,48
2019-02-22T00:19:07.851Z,47
2019-02-22T00:19:10.131Z,45
2019-02-22T00:19:12.342Z,46
2019-02-22T00:19:16.767Z,45
2019-02-22T00:19:24.493Z,44
2019-02-22T00:19:30.068Z,43
2019-02-22T00:19:37.909Z,44
2019-02-22T00:19:50.822Z,45
2019-02-22T00:19:57.040Z,46
2019-02-22T00:19:58.181Z,45
2019-02-22T00:20:00.390Z,46
2019-02-22T00:20:09.170Z,47
2019-02-22T00:20:12.511Z,45
2019-02-22T00:20:15.832Z,46
2019-02-22T00:20:18.128Z,47
2019-02-22T00:20:20.520Z,46
2019-02-22T00:20:25.929Z,45
2019-02-22T00:20:28.144Z,44
2019-02-22T00:20:32.685Z,43
2019-02-22T00:20:36.051Z,45
2019-02-22T00:20:41.153Z,46
2019-02-22T00:20:44.749Z,45
2019-02-22T00:20:45.913Z,44
2019-02-22T00:20:48.203Z,45
2019-02-22T00:20:55.858Z,46
2019-02-22T00:20:58.107Z,45
2019-02-22T00:20:59.205Z,46
2019-02-22T00:21:11.188Z,45
2019-02-22T00:21:13.427Z,46
2019-02-22T00:21:14.615Z,45
2019-02-22T00:21:16.929Z,46
2019-02-22T00:21:19.207Z,48
2019-02-22T00:21:23.662Z,47
2019-02-22T00:21:25.860Z,48
2019-02-22T00:21:29.288Z,47
2019-02-22T00:21:32.673Z,48
2019-02-22T00:21:35.994Z,47
2019-02-22T00:21:39.279Z,48
2019-02-22T00:21:43.768Z,47
2019-02-22T00:21:46.370Z,46
2019-02-22T00:21:49.677Z,45
2019-02-22T00:21:52.984Z,46
2019-02-22T00:21:58.517Z,47
2019-02-22T00:22:00.813Z,48
2019-02-22T00:22:03.126Z,47
2019-02-22T00:22:05.303Z,48
2019-02-22T00:22:14.090Z,47
2019-02-22T00:22:16.431Z,46
2019-02-22T00:22:18.687Z,47
2019-02-22T00:22:21.997Z,48
2019-02-22T00:22:27.513Z,47
2019-02-22T00:22:29.790Z,46
2019-02-22T00:22:30.958Z,47
2019-02-22T00:22:33.262Z,48
2019-02-22T00:22:34.328Z,47
2019-02-22T00:22:36.622Z,48
2019-02-22T00:22:40.000Z,47
2019-02-22T00:22:43.463Z,46
2019-02-22T00:22:47.897Z,47
2019-02-22T00:22:51.293Z,46
2019-02-22T00:22:54.636Z,48
2019-02-22T00:22:57.924Z,50
2019-02-22T00:23:02.424Z,49
2019-02-22T00:23:06.848Z,50
2019-02-22T00:23:11.287Z,49
2019-02-22T00:23:13.568Z,48
2019-02-22T00:23:17.942Z,49
2019-02-22T00:23:21.352Z,48
2019-02-22T00:23:24.693Z,49
2019-02-22T00:23:28.994Z,48
2019-02-22T00:23:39.948Z,47
2019-02-22T00:23:42.203Z,46
2019-02-22T00:23:44.403Z,45
2019-02-22T00:23:48.298Z,46
2019-02-22T00:23:49.467Z,45
2019-02-22T00:23:52.762Z,48
2019-02-22T00:23:54.992Z,47
2019-02-22T00:23:58.292Z,46
2019-02-22T00:24:00.556Z,47
2019-02-22T00:24:03.799Z,48
2019-02-22T00:24:09.348Z,47
2019-02-22T00:24:10.499Z,48
2019-02-22T00:24:12.800Z,46
2019-02-22T00:24:16.151Z,47
2019-02-22T00:24:18.360Z,46
2019-02-22T00:24:19.561Z,47
2019-02-22T00:24:21.763Z,46
2019-02-22T00:24:31.731Z,45
2019-02-22T00:24:33.974Z,46
2019-02-22T00:24:37.409Z,45
2019-02-22T00:24:41.856Z,46
2019-02-22T00:24:47.464Z,45
2019-02-22T00:24:50.757Z,46
2019-02-22T00:24:54.132Z,47
2019-02-22T00:24:57.399Z,49
2019-02-22T00:25:01.767Z,46
2019-02-22T00:25:04.041Z,47
2019-02-22T00:25:08.648Z,46
2019-02-22T00:25:13.172Z,47
2019-02-22T00:25:16.516Z,48
2019-02-22T00:25:17.724Z,47
2019-02-22T00:25:19.894Z,46
2019-02-22T00:25:25.550Z,47
2019-02-22T00:25:36.602Z,48
2019-02-22T00:25:39.958Z,49
2019-02-22T00:25:42.242Z,50
2019-02-22T00:25:44.427Z,48
2019-02-22T00:25:47.796Z,49
2019-02-22T00:25:51.113Z,48
2019-02-22T00:25:55.478Z,47
2019-02-22T00:26:00.908Z,46
2019-02-22T00:26:04.234Z,45
2019-02-22T00:26:10.954Z,46
2019-02-22T00:26:13.453Z,47
2019-02-22T00:26:16.745Z,46
2019-02-22T00:26:19.080Z,47
2019-02-22T00:26:21.372Z,48
2019-02-22T00:26:24.642Z,47
2019-02-22T00:26:26.907Z,48
2019-02-22T00:26:31.456Z,50
2019-02-22T00:26:33.825Z,49
2019-02-22T00:26:38.259Z,48
2019-02-22T00:26:42.670Z,47
2019-02-22T00:26:43.832Z,46
2019-02-22T00:26:50.535Z,48
2019-02-22T00:26:58.409Z,46
2019-02-22T00:27:03.939Z,47
2019-02-22T00:27:07.344Z,48
2019-02-22T00:27:10.881Z,47
2019-02-22T00:27:14.151Z,46
2019-02-22T00:27:16.440Z,47
2019-02-22T00:27:17.510Z,46
2019-02-22T00:27:19.740Z,47
2019-02-22T00:27:21.999Z,48
2019-02-22T00:27:27.606Z,47
2019-02-22T00:27:29.808Z,46
2019-02-22T00:27:33.170Z,47
2019-02-22T00:27:45.290Z,48
2019-02-22T00:27:48.627Z,47
2019-02-22T00:27:51.986Z,48
2019-02-22T00:27:55.314Z,47
2019-02-22T00:27:58.677Z,48
2019-02-22T00:28:03.050Z,49
2019-02-22T00:28:05.354Z,48
2019-02-22T00:28:07.635Z,49
2019-02-22T00:28:11.987Z,48
2019-02-22T00:28:16.812Z,47
2019-02-22T00:28:26.081Z,46
2019-02-22T00:28:31.322Z,47
2019-02-22T00:28:39.097Z,48
2019-02-22T00:28:45.362Z,49
2019-02-22T00:28:47.581Z,48
2019-02-22T00:28:49.814Z,49
2019-02-22T00:28:50.941Z,48
2019-02-22T00:28:52.026Z,49
2019-02-22T00:28:53.082Z,50
2019-02-22T00:28:57.569Z,49
2019-02-22T00:29:00.597Z,48
2019-02-22T00:29:02.842Z,49
2019-02-22T00:29:06.178Z,48
2019-02-22T00:29:09.521Z,47
2019-02-22T00:29:13.862Z,48
2019-02-22T00:29:16.109Z,47
2019-02-22T00:29:19.439Z,46
2019-02-22T00:29:23.920Z,45
2019-02-22T00:29:25.074Z,46
2019-02-22T00:29:29.605Z,47
2019-02-22T00:29:31.858Z,48
2019-02-22T00:29:35.288Z,47
2019-02-22T00:29:37.574Z,48
2019-02-22T00:29:40.971Z,49
2019-02-22T00:29:45.334Z,48
2019-02-22T00:29:54.140Z,49
2019-02-22T00:29:56.453Z,50
2019-02-22T00:29:58.695Z,49
2019-02-22T00:30:00.972Z,48
2019-02-22T00:30:03.336Z,47
2019-02-22T00:30:06.713Z,46
2019-02-22T00:30:10.058Z,45
2019-02-22T00:30:13.474Z,46
2019-02-22T00:30:16.929Z,47
2019-02-22T00:30:22.643Z,46
2019-02-22T00:30:24.843Z,47
2019-02-22T00:30:27.111Z,48
2019-02-22T00:30:29.386Z,49
2019-02-22T00:30:30.523Z,48
2019-02-22T00:30:39.208Z,46
2019-02-22T00:30:41.414Z,45
2019-02-22T00:30:45.758Z,46
2019-02-22T00:30:50.275Z,45
2019-02-22T00:30:53.664Z,46
2019-02-22T00:31:02.586Z,47
2019-02-22T00:31:09.226Z,48
2019-02-22T00:31:20.223Z,47
2019-02-22T00:31:29.031Z,48
2019-02-22T00:31:36.798Z,49
2019-02-22T00:31:39.099Z,50
2019-02-22T00:31:43.641Z,51
2019-02-22T00:31:45.879Z,50
2019-02-22T00:31:47.986Z,51
2019-02-22T00:31:50.296Z,50
2019-02-22T00:31:54.657Z,49
2019-02-22T00:31:57.987Z,48
2019-02-22T00:32:04.612Z,46
2019-02-22T00:32:07.991Z,45
2019-02-22T00:32:12.593Z,46
2019-02-22T00:32:27.908Z,47
2019-02-22T00:32:44.737Z,46
2019-02-22T00:32:47.280Z,45
2019-02-22T00:32:52.831Z,47
2019-02-22T00:32:57.306Z,46
2019-02-22T00:33:04.581Z,47
2019-02-22T00:33:10.173Z,48
2019-02-22T00:33:11.413Z,47
2019-02-22T00:33:12.512Z,48
2019-02-22T00:33:16.889Z,49
2019-02-22T00:33:21.365Z,48
2019-02-22T00:33:24.634Z,47
2019-02-22T00:33:26.939Z,48
2019-02-22T00:33:29.353Z,47
2019-02-22T00:33:34.941Z,48
2019-02-22T00:33:39.410Z,49
2019-02-22T00:33:44.946Z,48
2019-02-22T00:33:49.402Z,47
2019-02-22T00:33:53.926Z,48
2019-02-22T00:34:01.609Z,47
2019-02-22T00:34:04.019Z,46
2019-02-22T00:34:07.517Z,48
2019-02-22T00:34:11.029Z,47
2019-02-22T00:34:20.236Z,48
2019-02-22T00:34:23.670Z,49
2019-02-22T00:34:29.534Z,48
2019-02-22T00:34:34.217Z,47
2019-02-22T00:34:40.121Z,48
2019-02-22T00:34:43.537Z,50
2019-02-22T00:34:47.112Z,48
2019-02-22T00:34:50.714Z,47
2019-02-22T00:34:54.214Z,48
2019-02-22T00:34:57.673Z,49
2019-02-22T00:34:59.068Z,50
2019-02-22T00:35:02.915Z,49
2019-02-22T00:35:05.269Z,48
2019-02-22T00:35:09.902Z,47
2019-02-22T00:35:12.249Z,48
2019-02-22T00:35:15.891Z,49
2019-02-22T00:35:19.704Z,48
2019-02-22T00:35:22.144Z,47
2019-02-22T00:35:25.632Z,48
2019-02-22T00:35:32.066Z,47
2019-02-22T00:35:34.546Z,48
2019-02-22T00:35:38.089Z,49
2019-02-22T00:35:42.721Z,48
2019-02-22T00:35:45.204Z,47
2019-02-22T00:35:48.651Z,48
2019-02-22T00:35:55.644Z,46
2019-02-22T00:35:57.922Z,45
2019-02-22T00:36:00.414Z,46
2019-02-22T00:36:02.758Z,47
2019-02-22T00:36:06.467Z,46
2019-02-22T00:36:08.879Z,45
2019-02-22T00:36:11.122Z,47
2019-02-22T00:36:18.707Z,48
2019-02-22T00:36:22.049Z,49
2019-02-22T00:36:25.539Z,48
2019-02-22T00:36:30.119Z,47
2019-02-22T00:36:36.861Z,46
2019-02-22T00:36:39.305Z,45
2019-02-22T00:36:41.587Z,46
2019-02-22T00:36:47.167Z,47
2019-02-22T00:36:50.709Z,46
2019-02-22T00:36:53.083Z,47
2019-02-22T00:36:56.553Z,48
2019-02-22T00:37:00.077Z,47
2019-02-22T00:37:02.567Z,48
2019-02-22T00:37:04.862Z,47
2019-02-22T00:37:08.410Z,46
2019-02-22T00:37:11.914Z,47
2019-02-22T00:37:16.640Z,46
2019-02-22T00:37:23.477Z,45
2019-02-22T00:37:27.093Z,46
2019-02-22T00:37:30.621Z,45
2019-02-22T00:37:33.006Z,47
2019-02-22T00:37:35.391Z,46
2019-02-22T00:37:37.948Z,47
2019-02-22T00:37:40.167Z,46
2019-02-22T00:37:42.381Z,45
2019-02-22T00:37:44.529Z,46
2019-02-22T00:37:47.978Z,45
2019-02-22T00:37:51.354Z,46
2019-02-22T00:37:54.721Z,45
2019-02-22T00:37:58.069Z,46
2019-02-22T00:38:02.302Z,47
2019-02-22T00:38:04.672Z,48
2019-02-22T00:38:07.001Z,47
2019-02-22T00:38:10.367Z,46
2019-02-22T00:38:14.922Z,47
2019-02-22T00:38:18.353Z,46
2019-02-22T00:38:20.584Z,45
2019-02-22T00:38:22.838Z,46
2019-02-22T00:38:29.410Z,47
2019-02-22T00:38:34.013Z,48
2019-02-22T00:38:37.462Z,49
2019-02-22T00:38:39.716Z,50
2019-02-22T00:38:42.036Z,51
2019-02-22T00:38:44.358Z,50
2019-02-22T00:38:47.758Z,49
2019-02-22T00:38:56.621Z,48
2019-02-22T00:39:02.177Z,47
2019-02-22T00:39:05.535Z,48
2019-02-22T00:39:07.843Z,47
2019-02-22T00:39:11.035Z,46
2019-02-22T00:39:15.598Z,45
2019-02-22T00:39:16.795Z,46
2019-02-22T00:39:17.912Z,45
2019-02-22T00:39:20.243Z,46
2019-02-22T00:39:25.826Z,45
2019-02-22T00:39:29.248Z,48
2019-02-22T00:39:31.485Z,49
2019-02-22T00:39:33.875Z,48
2019-02-22T00:39:38.355Z,47
2019-02-22T00:39:40.602Z,48
2019-02-22T00:39:42.859Z,49
2019-02-22T00:39:50.742Z,50
2019-02-22T00:39:51.930Z,49
2019-02-22T00:39:53.034Z,50
2019-02-22T00:39:55.301Z,49
2019-02-22T00:39:57.523Z,48
2019-02-22T00:40:02.999Z,49
2019-02-22T00:40:07.501Z,48
2019-02-22T00:40:13.165Z,47
2019-02-22T00:40:16.500Z,46
2019-02-22T00:40:19.895Z,47
2019-02-22T00:40:23.238Z,46
2019-02-22T00:40:25.558Z,47
2019-02-22T00:40:28.946Z,48
2019-02-22T00:40:33.295Z,49
2019-02-22T00:40:36.655Z,48
2019-02-22T00:40:40.045Z,49
2019-02-22T00:40:44.497Z,47
2019-02-22T00:40:50.073Z,48
2019-02-22T00:40:57.000Z,46
2019-02-22T00:41:01.436Z,47
2019-02-22T00:41:08.127Z,48
2019-02-22T00:41:11.530Z,47
2019-02-22T00:41:16.011Z,48
2019-02-22T00:41:19.427Z,47
2019-02-22T00:41:21.716Z,48
2019-02-22T00:41:24.019Z,47
2019-02-22T00:41:28.576Z,48
2019-02-22T00:41:30.887Z,47
2019-02-22T00:41:34.487Z,48
2019-02-22T00:41:36.738Z,49
2019-02-22T00:41:40.188Z,48
2019-02-22T00:41:42.470Z,47
2019-02-22T00:41:44.676Z,46
2019-02-22T00:41:48.983Z,48
2019-02-22T00:41:50.078Z,49
2019-02-22T00:41:51.155Z,48
2019-02-22T00:42:01.667Z,49
2019-02-22T00:42:06.169Z,50
2019-02-22T00:42:08.455Z,51
2019-02-22T00:42:10.802Z,50
2019-02-22T00:42:14.103Z,49
2019-02-22T00:42:18.667Z,51
2019-02-22T00:42:22.090Z,50
2019-02-22T00:42:24.401Z,49
2019-02-22T00:42:26.653Z,48
2019-02-22T00:42:32.121Z,49
2019-02-22T00:42:35.507Z,50
2019-02-22T00:42:39.991Z,49
2019-02-22T00:42:41.179Z,48
2019-02-22T00:42:42.290Z,49
2019-02-22T00:42:43.386Z,48
2019-02-22T00:42:52.549Z,47
2019-02-22T00:42:55.924Z,48
2019-02-22T00:42:58.176Z,49
2019-02-22T00:43:01.515Z,48
2019-02-22T00:43:06.947Z,47
2019-02-22T00:43:10.265Z,46
2019-02-22T00:43:12.531Z,47
2019-02-22T00:43:18.049Z,48
2019-02-22T00:43:23.648Z,49
2019-02-22T00:43:27.037Z,50
2019-02-22T00:43:30.433Z,49
2019-02-22T00:43:33.797Z,48
2019-02-22T00:43:36.013Z,47
2019-02-22T00:43:39.357Z,48
2019-02-22T00:43:41.634Z,47
2019-02-22T00:43:43.838Z,48
2019-02-22T00:43:47.238Z,47
2019-02-22T00:43:50.720Z,45
2019-02-22T00:43:52.982Z,46
2019-02-22T00:43:55.307Z,47
2019-02-22T00:43:58.708Z,48
2019-02-22T00:44:07.332Z,47
2019-02-22T00:44:11.851Z,48
2019-02-22T00:44:14.128Z,49
2019-02-22T00:44:17.531Z,48
2019-02-22T00:44:20.960Z,47
2019-02-22T00:44:25.191Z,46
2019-02-22T00:44:29.797Z,47
2019-02-22T00:44:32.157Z,46
2019-02-22T00:44:35.528Z,47
2019-02-22T00:44:38.857Z,48
2019-02-22T00:44:41.149Z,49
2019-02-22T00:44:43.432Z,50
2019-02-22T00:44:50.127Z,49
2019-02-22T00:44:52.367Z,48
2019-02-22T00:45:00.408Z,47
2019-02-22T00:45:02.645Z,46
2019-02-22T00:45:04.883Z,47
2019-02-22T00:45:07.222Z,48
2019-02-22T00:45:12.831Z,47
2019-02-22T00:45:16.190Z,48
2019-02-22T00:45:25.143Z,47
2019-02-22T00:45:29.634Z,46
2019-02-22T00:45:34.153Z,45
2019-02-22T00:45:39.858Z,47
2019-02-22T00:45:44.323Z,48
2019-02-22T00:45:48.901Z,49
2019-02-22T00:45:53.298Z,48
2019-02-22T00:45:55.545Z,47
2019-02-22T00:45:58.946Z,48
2019-02-22T00:46:02.399Z,47
2019-02-22T00:46:09.070Z,48
2019-02-22T00:46:12.449Z,49
2019-02-22T00:46:16.902Z,50
2019-02-22T00:46:26.762Z,49
2019-02-22T00:46:30.091Z,50
2019-02-22T00:46:31.264Z,49
2019-02-22T00:46:43.717Z,48
2019-02-22T00:46:56.639Z,47
2019-02-22T00:47:01.204Z,48
2019-02-22T00:47:05.735Z,47
2019-02-22T00:47:10.163Z,48
2019-02-22T00:47:14.623Z,47
2019-02-22T00:47:16.842Z,48
2019-02-22T00:47:20.252Z,49
2019-02-22T00:47:23.620Z,48
2019-02-22T00:47:27.004Z,47
2019-02-22T00:47:30.491Z,50
2019-02-22T00:47:34.973Z,49
2019-02-22T00:47:37.283Z,48
2019-02-22T00:47:39.526Z,47
2019-02-22T00:47:41.820Z,48
2019-02-22T00:47:45.190Z,47
2019-02-22T00:47:47.483Z,48
2019-02-22T00:47:52.007Z,49
2019-02-22T00:47:54.235Z,50
2019-02-22T00:48:01.984Z,49
2019-02-22T00:48:06.339Z,48
2019-02-22T00:48:10.843Z,47
2019-02-22T00:48:13.156Z,48
2019-02-22T00:48:15.442Z,47
2019-02-22T00:48:17.815Z,48
2019-02-22T00:48:20.104Z,47
2019-02-22T00:48:22.314Z,46
2019-02-22T00:48:24.572Z,47
2019-02-22T00:48:27.930Z,46
2019-02-22T00:48:30.172Z,45
2019-02-22T00:48:32.368Z,46
2019-02-22T00:48:35.708Z,47
2019-02-22T00:48:37.970Z,48
2019-02-22T00:48:40.274Z,49
2019-02-22T00:48:41.409Z,48
2019-02-22T00:48:47.036Z,49
2019-02-22T00:48:50.432Z,50
2019-02-22T00:48:52.680Z,49
2019-02-22T00:48:56.131Z,48
2019-02-22T00:48:59.456Z,47
2019-02-22T00:49:02.809Z,48
2019-02-22T00:49:06.209Z,47
2019-02-22T00:49:09.615Z,48
2019-02-22T00:49:12.928Z,47
2019-02-22T00:49:18.476Z,48
2019-02-22T00:49:20.756Z,47
2019-02-22T00:49:24.107Z,46
2019-02-22T00:49:26.276Z,47
2019-02-22T00:49:29.680Z,48
2019-02-22T00:49:31.994Z,47
2019-02-22T00:49:37.541Z,48
2019-02-22T00:49:44.287Z,49
2019-02-22T00:49:46.497Z,48
2019-02-22T00:49:48.749Z,50
2019-02-22T00:49:52.191Z,49
2019-02-22T00:49:55.568Z,50
2019-02-22T00:49:58.855Z,49
2019-02-22T00:50:03.421Z,48
2019-02-22T00:50:05.691Z,49
2019-02-22T00:50:10.209Z,50
2019-02-22T00:50:11.419Z,49
2019-02-22T00:50:13.732Z,50
2019-02-22T00:50:18.180Z,49
2019-02-22T00:50:22.533Z,50
2019-02-22T00:50:24.850Z,49
2019-02-22T00:50:28.276Z,50
2019-02-22T00:50:32.796Z,51
2019-02-22T00:50:36.146Z,50
2019-02-22T00:50:41.626Z,49
2019-02-22T00:50:43.900Z,48
2019-02-22T00:50:50.683Z,49
2019-02-22T00:50:57.345Z,48
2019-02-22T00:51:04.146Z,49
2019-02-22T00:51:08.634Z,50
2019-02-22T00:51:10.873Z,51
2019-02-22T00:51:14.160Z,52
2019-02-22T00:51:16.409Z,51
2019-02-22T00:51:18.636Z,52
2019-02-22T00:51:24.320Z,51
2019-02-22T00:51:35.104Z,52
2019-02-22T00:51:37.415Z,51
2019-02-22T00:51:40.804Z,52
2019-02-22T00:51:41.964Z,51
2019-02-22T00:51:45.350Z,50
2019-02-22T00:51:48.655Z,51
2019-02-22T00:51:51.953Z,50
2019-02-22T00:51:53.045Z,51
2019-02-22T00:51:56.409Z,52
2019-02-22T00:51:59.690Z,48
2019-02-22T00:52:03.024Z,47
2019-02-22T00:52:05.289Z,48
2019-02-22T00:52:07.554Z,47
2019-02-22T00:52:09.779Z,48
2019-02-22T00:52:15.173Z,49
2019-02-22T00:52:22.793Z,48
2019-02-22T00:52:26.145Z,47
2019-02-22T00:52:28.415Z,48
2019-02-22T00:52:30.808Z,49
2019-02-22T00:52:32.913Z,48
2019-02-22T00:52:35.261Z,49
2019-02-22T00:52:37.575Z,48
2019-02-22T00:52:39.808Z,49
2019-02-22T00:52:44.250Z,48
2019-02-22T00:52:47.589Z,47
2019-02-22T00:52:51.954Z,46
2019-02-22T00:52:56.452Z,47
2019-02-22T00:52:58.708Z,46
2019-02-22T00:53:02.059Z,48
2019-02-22T00:53:05.496Z,49
2019-02-22T00:53:08.901Z,50
2019-02-22T00:53:13.437Z,48
2019-02-22T00:53:15.704Z,47
2019-02-22T00:53:17.981Z,48
2019-02-22T00:53:22.380Z,47
2019-02-22T00:53:25.683Z,46
2019-02-22T00:53:31.116Z,47
2019-02-22T00:53:33.440Z,48
2019-02-22T00:53:37.873Z,49
2019-02-22T00:53:40.053Z,50
2019-02-22T00:53:42.227Z,51
2019-02-22T00:53:50.219Z,50
2019-02-22T00:53:58.903Z,49
2019-02-22T00:54:03.316Z,48
2019-02-22T00:54:05.706Z,49
2019-02-22T00:54:09.046Z,50
2019-02-22T00:54:11.235Z,49
2019-02-22T00:54:13.539Z,50
2019-02-22T00:54:15.786Z,49
2019-02-22T00:54:18.067Z,50
2019-02-22T00:54:20.277Z,49
2019-02-22T00:54:22.532Z,48
2019-02-22T00:54:24.779Z,49
2019-02-22T00:54:28.075Z,50
2019-02-22T00:54:30.336Z,49
2019-02-22T00:54:32.572Z,50
2019-02-22T00:54:35.843Z,51
2019-02-22T00:54:39.291Z,52
2019-02-22T00:54:41.524Z,51
2019-02-22T00:54:47.632Z,52
2019-02-22T00:54:52.119Z,50
2019-02-22T00:54:54.299Z,49
2019-02-22T00:54:57.587Z,51
2019-02-22T00:55:00.947Z,50
2019-02-22T00:55:06.392Z,49
2019-02-22T00:55:07.571Z,50
2019-02-22T00:55:09.854Z,51
2019-02-22T00:55:16.371Z,50
2019-02-22T00:55:20.783Z,51
2019-02-22T00:55:23.078Z,50
2019-02-22T00:55:24.217Z,49
2019-02-22T00:55:29.644Z,48
2019-02-22T00:55:32.927Z,47
2019-02-22T00:55:41.766Z,48
2019-02-22T00:55:49.851Z,49
2019-02-22T00:55:53.247Z,48
2019-02-22T00:55:57.690Z,49
2019-02-22T00:56:01.059Z,48
2019-02-22T00:56:05.450Z,49
2019-02-22T00:56:07.745Z,48
2019-02-22T00:56:10.069Z,49
2019-02-22T00:56:12.260Z,48
2019-02-22T00:56:15.482Z,49
2019-02-22T00:56:20.006Z,48
2019-02-22T00:56:23.443Z,49
2019-02-22T00:56:26.776Z,52
2019-02-22T00:56:31.231Z,51
2019-02-22T00:56:35.692Z,50
2019-02-22T00:56:39.017Z,51
2019-02-22T00:56:42.372Z,50
2019-02-22T00:56:45.768Z,49
2019-02-22T00:56:49.111Z,50
2019-02-22T00:56:52.459Z,49
2019-02-22T00:56:54.565Z,50
2019-02-22T00:56:57.833Z,48
2019-02-22T00:57:05.451Z,49
2019-02-22T00:57:11.931Z,48
2019-02-22T00:57:17.460Z,49
2019-02-22T00:57:20.703Z,48
2019-02-22T00:57:27.357Z,47
2019-02-22T00:57:31.778Z,48
2019-02-22T00:57:35.242Z,47
2019-02-22T00:57:39.688Z,48
2019-02-22T00:57:44.024Z,47
2019-02-22T00:57:48.521Z,48
2019-02-22T00:57:52.000Z,47
2019-02-22T00:57:55.407Z,46
2019-02-22T00:57:57.701Z,45
2019-02-22T00:57:59.923Z,46
2019-02-22T00:58:02.182Z,45